Time;durP1;ratioP1;P1;durP2;ratioP2;P2;SDS_P1;SDS_P2;PMS_P1;PMS_P2;Temp;Humidity;BMP_temperature;BMP_pressure;BME280_temperature;BME280_humidity;BME280_pressure;Samples;Min_cycle;Max_cycle;Signal;HPM_P1;HPM_P2
2021/12/16 00:11:04;;;;;;;10.70;5.30;;;7.70;99.90;;;;;;4841124;29;20052;-91
2021/12/16 00:30:39;;;;;;;17.63;6.15;;;7.40;99.90;;;;;;4832360;29;20106;-92
2021/12/16 00:35:51;;;;;;;7.72;4.47;;;7.40;99.90;;;;;;4809156;29;20136;-88
2021/12/16 00:38:17;;;;;;;9.35;5.65;;;7.50;99.90;;;;;;4828258;29;20050;-92
2021/12/16 00:40:43;;;;;;;14.10;5.80;;;7.50;99.90;;;;;;4808196;29;20053;-93
2021/12/16 00:43:16;;;;;;;9.45;5.82;;;7.50;99.90;;;;;;4814593;29;20073;-92
2021/12/16 00:55:56;;;;;;;11.20;5.33;;;7.50;99.90;;;;;;4829089;29;20057;-92
2021/12/16 00:58:32;;;;;;;10.02;5.28;;;7.50;99.90;;;;;;4826298;29;20106;-92
2021/12/16 01:01:17;;;;;;;9.65;5.25;;;7.50;99.90;;;;;;4827134;29;20068;-91
2021/12/16 01:33:51;;;;;;;9.30;5.35;;;7.60;99.90;;;;;;4835361;29;20045;-93
2021/12/16 01:39:46;;;;;;;7.22;5.28;;;7.50;99.90;;;;;;4834249;29;20515;-93
2021/12/16 01:47:47;;;;;;;8.85;6.10;;;7.50;99.90;;;;;;4831498;29;20061;-91
2021/12/16 01:50:04;;;;;;;15.13;6.43;;;7.50;99.90;;;;;;4840337;29;20063;-92
2021/12/16 01:55:19;;;;;;;10.98;6.32;;;7.50;99.90;;;;;;4814412;29;20053;-93
2021/12/16 01:57:50;;;;;;;13.43;7.40;;;7.40;99.90;;;;;;4813552;29;20099;-92
2021/12/16 02:00:29;;;;;;;12.05;6.72;;;7.50;99.90;;;;;;4818042;29;20042;-93
2021/12/16 02:03:04;;;;;;;9.63;6.57;;;7.40;99.90;;;;;;4813501;29;20042;-89
2021/12/16 02:08:32;;;;;;;10.82;6.82;;;7.50;99.90;;;;;;4836109;29;20052;-92
2021/12/16 02:11:17;;;;;;;10.85;6.60;;;7.40;99.90;;;;;;4823666;29;20050;-88
2021/12/16 02:30:20;;;;;;;17.23;8.75;;;7.40;99.90;;;;;;4822572;29;20081;-92
2021/12/16 02:35:43;;;;;;;13.82;7.95;;;7.30;99.90;;;;;;4824375;29;20050;-93
2021/12/16 02:38:13;;;;;;;16.02;8.60;;;7.70;99.90;;;;;;4832509;29;20469;-91
2021/12/16 02:40:39;;;;;;;13.82;8.07;;;7.30;99.90;;;;;;4820795;29;20053;-92
2021/12/16 02:48:37;;;;;;;12.05;8.50;;;7.30;99.90;;;;;;4827787;29;20109;-93
2021/12/16 02:51:10;;;;;;;15.13;8.38;;;7.30;99.90;;;;;;4802173;29;20053;-88
2021/12/16 02:53:40;;;;;;;12.25;8.93;;;7.30;99.90;;;;;;4834004;29;20046;-92
2021/12/16 02:56:06;;;;;;;15.40;9.40;;;7.30;99.90;;;;;;4828301;29;20073;-92
2021/12/16 02:58:34;;;;;;;12.40;8.32;;;7.40;99.90;;;;;;4832418;29;20057;-92
2021/12/16 03:01:09;;;;;;;18.13;9.55;;;7.30;99.90;;;;;;4824982;29;20049;-92
2021/12/16 03:03:37;;;;;;;14.73;8.95;;;7.30;99.90;;;;;;4826693;29;20046;-92
2021/12/16 03:06:03;;;;;;;13.60;9.15;;;7.30;99.90;;;;;;4841331;29;20445;-88
2021/12/16 03:08:31;;;;;;;20.42;8.73;;;7.30;99.90;;;;;;4812609;29;20057;-91
2021/12/16 03:13:32;;;;;;;21.60;9.88;;;7.30;99.90;;;;;;4827913;29;20046;-92
2021/12/16 03:18:40;;;;;;;16.63;9.67;;;7.30;99.90;;;;;;4837687;29;20524;-93
2021/12/16 03:21:20;;;;;;;17.58;8.45;;;7.20;99.90;;;;;;4814599;29;20046;-88
2021/12/16 03:37:15;;;;;;;16.85;10.55;;;7.20;99.90;;;;;;4832855;29;20045;-92
2021/12/16 03:39:54;;;;;;;16.60;10.45;;;7.20;99.90;;;;;;4830804;29;20054;-92
2021/12/16 03:42:41;;;;;;;18.85;11.23;;;7.10;99.90;;;;;;4811730;29;20523;-93
2021/12/16 03:46:25;;;;;;;15.15;9.98;;;7.10;99.90;;;;;;4818584;29;20412;-89
2021/12/16 03:48:06;;;;;;;19.17;10.10;;;7.10;99.90;;;;;;4830756;29;20405;-92
2021/12/16 03:50:32;;;;;;;19.25;10.90;;;7.10;99.90;;;;;;4826973;29;20056;-92
2021/12/16 03:52:58;;;;;;;15.90;10.27;;;7.10;99.90;;;;;;4804734;29;20041;-92
2021/12/16 03:55:24;;;;;;;16.47;10.70;;;7.70;99.90;;;;;;4816697;29;20503;-93
2021/12/16 03:57:50;;;;;;;20.63;11.03;;;7.10;99.90;;;;;;4803182;29;20208;-93
2021/12/16 04:00:31;;;;;;;15.95;11.07;;;7.00;99.90;;;;;;4816018;29;20115;-92
2021/12/16 04:02:58;;;;;;;24.45;10.80;;;6.90;99.90;;;;;;4812745;29;20493;-93
2021/12/16 04:05:24;;;;;;;17.25;12.02;;;6.90;99.90;;;;;;4809912;29;20049;-93
2021/12/16 04:07:51;;;;;;;22.42;12.20;;;5.90;99.90;;;;;;4839143;29;20076;-91
2021/12/16 04:10:31;;;;;;;22.45;11.35;;;6.80;99.90;;;;;;4816801;29;20085;-92
2021/12/16 04:12:57;;;;;;;15.40;10.68;;;6.80;99.90;;;;;;4812242;29;20134;-92
2021/12/16 04:15:22;;;;;;;21.80;12.43;;;6.70;99.90;;;;;;4835799;29;20046;-91
2021/12/16 04:17:48;;;;;;;17.83;11.27;;;7.80;99.90;;;;;;4812917;29;20508;-93
2021/12/16 04:20:15;;;;;;;15.77;10.13;;;6.90;99.90;;;;;;4825648;29;20497;-92
2021/12/16 04:22:44;;;;;;;19.73;11.95;;;6.70;99.90;;;;;;4812337;29;20057;-90
2021/12/16 04:25:22;;;;;;;21.92;12.25;;;6.70;99.90;;;;;;4806145;29;20049;-93
2021/12/16 04:27:51;;;;;;;15.05;10.95;;;6.70;99.90;;;;;;4822283;29;20161;-93
2021/12/16 04:30:18;;;;;;;20.48;11.93;;;6.80;99.90;;;;;;4832528;29;20046;-93
2021/12/16 04:32:44;;;;;;;19.60;11.02;;;6.60;99.90;;;;;;4819971;29;20105;-92
2021/12/16 04:35:11;;;;;;;18.45;10.95;;;6.50;99.90;;;;;;4825021;29;20038;-92
2021/12/16 04:37:37;;;;;;;21.83;11.57;;;6.50;99.90;;;;;;4823806;29;20061;-93
2021/12/16 04:40:10;;;;;;;17.10;11.37;;;6.50;99.90;;;;;;4800088;29;20044;-92
2021/12/16 04:42:37;;;;;;;20.35;12.05;;;6.40;99.90;;;;;;4804531;29;20042;-92
2021/12/16 04:45:07;;;;;;;20.08;11.70;;;6.40;99.90;;;;;;4813576;29;20050;-92
2021/12/16 04:47:33;;;;;;;22.52;13.48;;;6.40;99.90;;;;;;4814272;29;20053;-92
2021/12/16 04:49:59;;;;;;;25.23;11.83;;;6.30;99.90;;;;;;4823447;29;20412;-90
2021/12/16 04:52:25;;;;;;;23.98;12.85;;;6.60;99.90;;;;;;4821078;29;20173;-93
2021/12/16 04:54:51;;;;;;;22.52;13.43;;;6.30;99.90;;;;;;4822992;29;20053;-93
2021/12/16 04:57:17;;;;;;;19.57;10.60;;;6.30;99.90;;;;;;4822696;29;20053;-88
2021/12/16 04:59:44;;;;;;;23.73;12.13;;;6.30;99.90;;;;;;4821457;29;20498;-92
2021/12/16 05:02:13;;;;;;;18.13;11.20;;;6.20;99.90;;;;;;4827095;29;20053;-92
2021/12/16 05:04:39;;;;;;;22.75;11.73;;;6.20;99.90;;;;;;4814457;29;20061;-93
2021/12/16 05:07:06;;;;;;;20.53;12.13;;;6.20;99.90;;;;;;4827350;29;20405;-92
2021/12/16 05:12:14;;;;;;;16.40;11.30;;;6.20;99.90;;;;;;4837611;29;20137;-91
2021/12/16 05:14:40;;;;;;;21.83;13.30;;;6.20;99.90;;;;;;4829560;29;20046;-92
2021/12/16 05:17:24;;;;;;;21.00;13.00;;;6.20;99.90;;;;;;4816984;29;20447;-92
2021/12/16 05:19:52;;;;;;;16.50;11.52;;;6.30;99.90;;;;;;4819431;29;20057;-87
2021/12/16 05:25:07;;;;;;;19.92;12.27;;;6.20;99.90;;;;;;4837260;29;20050;-92
2021/12/16 05:27:34;;;;;;;20.10;12.32;;;6.20;99.90;;;;;;4832085;29;20481;-92
2021/12/16 05:29:59;;;;;;;20.08;11.38;;;6.20;99.90;;;;;;4798975;29;20060;-92
2021/12/16 05:32:25;;;;;;;20.17;13.47;;;6.20;99.90;;;;;;4836440;29;20038;-93
2021/12/16 05:34:51;;;;;;;20.98;12.38;;;6.20;99.90;;;;;;4819380;29;20128;-93
2021/12/16 05:37:17;;;;;;;19.87;12.17;;;6.20;99.90;;;;;;4813234;29;20137;-93
2021/12/16 05:39:43;;;;;;;16.50;12.43;;;6.30;99.90;;;;;;4848543;29;20126;-93
2021/12/16 05:42:09;;;;;;;24.00;13.60;;;5.70;99.90;;;;;;4822000;29;20041;-92
2021/12/16 05:44:35;;;;;;;17.93;11.67;;;6.40;99.90;;;;;;4832222;29;20074;-92
2021/12/16 05:47:01;;;;;;;20.07;11.00;;;6.70;99.90;;;;;;4802347;29;20453;-94
2021/12/16 05:49:27;;;;;;;21.33;12.27;;;6.40;99.90;;;;;;4831253;29;20121;-92
2021/12/16 05:51:53;;;;;;;19.65;11.55;;;6.50;99.90;;;;;;4820464;29;20106;-93
2021/12/16 05:54:21;;;;;;;19.50;13.23;;;6.50;99.90;;;;;;4816066;29;20101;-93
2021/12/16 05:56:47;;;;;;;21.67;12.35;;;6.50;99.90;;;;;;4817681;29;20076;-89
2021/12/16 05:59:14;;;;;;;;;;;6.50;99.90;;;;;;4819610;29;20049;-91
2021/12/16 06:01:41;;;;;;;22.45;11.23;;;6.50;99.90;;;;;;4837371;29;19924;-91
2021/12/16 06:04:09;;;;;;;17.40;12.43;;;6.50;99.90;;;;;;4842365;29;20057;-92
2021/12/16 06:06:35;;;;;;;19.52;13.13;;;7.40;99.90;;;;;;4755178;29;20138;-92
2021/12/16 06:09:02;;;;;;;14.80;10.70;;;6.60;99.90;;;;;;4840175;29;20079;-91
2021/12/16 06:11:31;;;;;;;23.88;12.32;;;6.50;99.90;;;;;;4830098;29;20516;-92
2021/12/16 06:14:10;;;;;;;22.38;12.85;;;6.50;99.90;;;;;;4822159;29;20556;-95
2021/12/16 06:27:38;;;;;;;19.88;11.55;;;6.60;99.90;;;;;;4833795;29;20069;-96
2021/12/16 06:30:08;;;;;;;;;;;6.60;99.90;;;;;;4832143;29;20061;-95
2021/12/16 06:32:34;;;;;;;25.15;12.68;;;6.60;99.90;;;;;;4829039;29;19924;-94
2021/12/16 06:35:01;;;;;;;19.48;12.98;;;6.60;99.90;;;;;;4818145;29;20098;-96
2021/12/16 06:37:27;;;;;;;23.30;11.60;;;6.60;99.90;;;;;;4818977;29;20054;-91
2021/12/16 06:39:52;;;;;;;20.57;12.53;;;7.50;99.90;;;;;;4835090;29;20082;-92
2021/12/16 06:42:19;;;;;;;17.17;12.00;;;6.60;99.90;;;;;;4834123;29;20097;-96
2021/12/16 06:44:52;;;;;;;19.08;12.35;;;6.60;99.90;;;;;;4801658;29;20121;-94
2021/12/16 06:47:23;;;;;;;26.45;13.30;;;6.70;99.90;;;;;;4808165;29;20058;-95
2021/12/16 06:49:51;;;;;;;18.80;11.93;;;6.70;99.90;;;;;;4813368;29;20053;-96
2021/12/16 06:52:20;;;;;;;23.00;13.93;;;6.70;99.90;;;;;;4819309;29;20063;-94
2021/12/16 06:57:26;;;;;;;21.23;13.68;;;6.60;99.90;;;;;;4817386;29;20085;-89
2021/12/16 06:59:57;;;;;;;24.42;13.18;;;6.80;99.90;;;;;;4818245;29;20045;-85
2021/12/16 07:02:45;;;;;;;19.27;12.35;;;6.60;99.90;;;;;;4797219;29;20494;-95
2021/12/16 07:05:13;;;;;;;22.50;12.38;;;6.80;99.90;;;;;;4838667;29;20045;-93
2021/12/16 07:07:39;;;;;;;16.95;11.45;;;6.50;99.90;;;;;;4819378;29;20089;-88
2021/12/16 07:10:08;;;;;;;22.95;13.10;;;6.50;99.90;;;;;;4829328;29;20049;-89
2021/12/16 07:12:38;;;;;;;22.52;12.90;;;6.50;99.90;;;;;;4803127;29;20045;-89
2021/12/16 07:15:08;;;;;;;29.25;13.10;;;6.50;99.90;;;;;;4819403;29;20053;-89
2021/12/16 07:17:34;;;;;;;19.67;13.05;;;6.50;99.90;;;;;;4797248;29;20102;-86
2021/12/16 07:20:00;;;;;;;19.73;11.90;;;6.40;99.90;;;;;;4816800;29;20061;-87
2021/12/16 07:22:26;;;;;;;16.17;11.63;;;6.40;99.90;;;;;;4828809;29;20037;-89
2021/12/16 07:24:52;;;;;;;18.40;11.83;;;6.40;99.90;;;;;;4827413;29;20071;-92
2021/12/16 07:27:17;;;;;;;22.60;13.87;;;6.30;99.90;;;;;;4813010;29;20081;-94
2021/12/16 07:29:43;;;;;;;24.97;13.53;;;6.30;99.90;;;;;;4797259;29;20046;-94
2021/12/16 07:32:09;;;;;;;22.47;13.43;;;6.30;99.90;;;;;;4807671;29;20078;-95
2021/12/16 07:34:35;;;;;;;23.27;12.50;;;6.30;99.90;;;;;;4815045;29;20069;-90
2021/12/16 07:37:04;;;;;;;20.43;12.83;;;6.30;99.90;;;;;;4814303;29;20427;-92
2021/12/16 07:39:37;;;;;;;25.88;13.38;;;6.10;99.90;;;;;;4851942;29;20050;-95
2021/12/16 07:42:05;;;;;;;18.98;11.50;;;6.20;99.90;;;;;;4801703;29;20076;-87
2021/12/16 07:44:32;;;;;;;21.15;12.27;;;6.10;99.90;;;;;;4813062;29;20087;-90
2021/12/16 07:47:01;;;;;;;19.75;11.77;;;6.10;99.90;;;;;;4824943;29;20077;-89
2021/12/16 07:49:34;;;;;;;18.60;11.85;;;6.10;99.90;;;;;;4811499;29;20114;-89
2021/12/16 07:52:03;;;;;;;17.90;12.38;;;6.10;99.90;;;;;;4826749;29;20066;-88
2021/12/16 07:54:29;;;;;;;21.17;12.77;;;6.10;99.90;;;;;;4812663;29;20042;-89
2021/12/16 07:56:56;;;;;;;17.17;11.23;;;6.10;99.90;;;;;;4824936;29;20246;-90
2021/12/16 07:59:23;;;;;;;22.95;11.40;;;6.10;99.90;;;;;;4815946;29;20154;-90
2021/12/16 08:01:49;;;;;;;19.58;12.30;;;6.10;99.90;;;;;;4829660;29;20085;-90
2021/12/16 08:04:20;;;;;;;22.07;13.03;;;6.10;99.90;;;;;;4822405;29;20133;-90
2021/12/16 08:06:52;;;;;;;21.63;12.02;;;6.10;99.90;;;;;;4814753;29;20130;-89
2021/12/16 08:09:18;;;;;;;24.63;13.43;;;6.00;99.90;;;;;;4810602;29;20137;-89
2021/12/16 08:11:46;;;;;;;28.58;15.10;;;6.00;99.90;;;;;;4824940;29;20061;-90
2021/12/16 08:14:12;;;;;;;24.75;13.48;;;6.00;99.90;;;;;;4828707;29;20045;-88
2021/12/16 08:16:38;;;;;;;22.27;13.73;;;6.10;99.90;;;;;;4797262;29;20389;-86
2021/12/16 08:19:07;;;;;;;23.20;14.77;;;6.10;99.90;;;;;;4823703;29;20114;-86
2021/12/16 08:21:34;;;;;;;22.55;13.07;;;6.20;99.90;;;;;;4808280;29;20061;-87
2021/12/16 08:24:01;;;;;;;;;;;6.20;99.90;;;;;;4800184;29;20060;-85
2021/12/16 08:26:29;;;;;;;20.73;14.07;;;6.30;99.90;;;;;;4808099;29;19924;-87
2021/12/16 08:28:55;;;;;;;22.00;13.55;;;6.50;99.90;;;;;;4829481;29;20062;-86
2021/12/16 08:31:21;;;;;;;22.60;14.50;;;6.30;99.90;;;;;;4802482;29;20053;-86
2021/12/16 08:33:50;;;;;;;24.20;13.73;;;6.30;99.90;;;;;;4815166;29;20050;-86
2021/12/16 08:36:17;;;;;;;21.58;12.57;;;6.30;99.90;;;;;;4808895;29;20045;-87
2021/12/16 08:38:45;;;;;;;21.67;13.25;;;6.30;99.90;;;;;;4807189;29;20083;-87
2021/12/16 08:41:17;;;;;;;20.20;11.95;;;6.30;99.90;;;;;;4827811;29;20053;-87
2021/12/16 08:43:44;;;;;;;22.13;13.20;;;6.40;99.90;;;;;;4812405;29;20049;-87
2021/12/16 08:46:14;;;;;;;23.92;13.52;;;6.40;99.90;;;;;;4808926;29;20049;-87
2021/12/16 08:48:43;;;;;;;25.60;14.07;;;6.40;99.90;;;;;;4811268;29;20481;-87
2021/12/16 08:51:09;;;;;;;23.80;12.82;;;6.40;99.90;;;;;;4823079;29;20053;-88
2021/12/16 08:53:35;;;;;;;22.20;14.25;;;6.50;99.90;;;;;;4807950;29;20096;-87
2021/12/16 08:56:04;;;;;;;35.03;15.23;;;6.50;99.90;;;;;;4834329;29;20189;-87
2021/12/16 08:58:30;;;;;;;26.13;14.20;;;6.60;99.90;;;;;;4838386;29;20053;-88
2021/12/16 09:01:05;;;;;;;25.92;15.25;;;6.60;99.90;;;;;;4808275;29;20137;-87
2021/12/16 09:03:31;;;;;;;29.17;16.40;;;6.60;99.90;;;;;;4808075;29;20046;-87
2021/12/16 09:05:57;;;;;;;24.70;15.53;;;6.70;99.90;;;;;;4823445;29;20050;-88
2021/12/16 09:08:24;;;;;;;25.65;15.05;;;7.00;99.90;;;;;;4805191;29;20374;-88
2021/12/16 09:10:49;;;;;;;27.30;13.38;;;6.70;99.90;;;;;;4747258;29;20130;-88
2021/12/16 09:13:17;;;;;;;31.30;15.87;;;6.70;99.90;;;;;;4808205;29;20121;-90
2021/12/16 09:16:05;;;;;;;30.33;15.02;;;6.70;99.90;;;;;;4824492;29;20046;-88
2021/12/16 09:18:41;;;;;;;25.88;13.30;;;6.70;99.90;;;;;;4828397;29;20409;-95
2021/12/16 09:21:13;;;;;;;27.38;14.52;;;6.70;99.90;;;;;;4830301;29;20128;-88
2021/12/16 09:23:41;;;;;;;28.38;14.32;;;6.80;99.90;;;;;;4831688;29;20454;-89
2021/12/16 09:26:07;;;;;;;26.65;14.18;;;6.80;99.90;;;;;;4811408;29;20085;-90
2021/12/16 09:28:33;;;;;;;29.85;16.63;;;6.80;99.90;;;;;;4816779;29;20058;-89
2021/12/16 09:30:59;;;;;;;32.73;15.63;;;6.80;99.90;;;;;;4810959;29;20064;-89
2021/12/16 09:33:26;;;;;;;22.30;13.32;;;7.10;99.90;;;;;;4827296;29;20045;-88
2021/12/16 09:35:58;;;;;;;34.58;14.73;;;6.80;99.90;;;;;;4806569;29;20053;-91
2021/12/16 09:38:28;;;;;;;26.02;14.55;;;6.90;99.90;;;;;;4829248;29;20060;-89
2021/12/16 09:40:55;;;;;;;;;;;7.30;99.90;;;;;;4832507;29;20134;-90
2021/12/16 09:43:32;;;;;;;22.75;12.63;;;6.90;99.90;;;;;;4827222;29;19996;-90
2021/12/16 09:45:59;;;;;;;;;;;6.90;99.90;;;;;;4815112;29;20065;-90
2021/12/16 09:48:26;;;;;;;21.73;12.52;;;7.00;99.90;;;;;;4815393;29;19924;-87
2021/12/16 09:50:55;;;;;;;23.08;13.30;;;7.00;99.90;;;;;;4814922;29;20054;-88
2021/12/16 09:53:21;;;;;;;21.85;11.70;;;7.00;99.90;;;;;;4834330;29;20038;-88
2021/12/16 09:55:57;;;;;;;21.98;12.68;;;7.10;99.90;;;;;;4815900;29;20054;-89
2021/12/16 09:58:23;;;;;;;19.70;13.15;;;7.70;99.90;;;;;;4829741;29;20401;-87
2021/12/16 10:00:49;;;;;;;22.27;13.55;;;7.20;99.90;;;;;;4825288;29;20050;-89
2021/12/16 10:03:15;;;;;;;25.30;12.73;;;7.20;99.90;;;;;;4803372;29;20041;-85
2021/12/16 10:05:41;;;;;;;19.30;12.27;;;7.20;99.90;;;;;;4832578;29;20102;-86
2021/12/16 10:08:09;;;;;;;22.73;12.03;;;7.30;99.90;;;;;;4812196;29;20138;-86
2021/12/16 10:10:35;;;;;;;20.80;13.52;;;7.30;99.90;;;;;;4820161;29;20105;-84
2021/12/16 10:13:03;;;;;;;22.75;13.85;;;7.30;99.90;;;;;;4837161;29;20038;-86
2021/12/16 10:18:04;;;;;;;22.08;12.15;;;7.40;99.90;;;;;;4830834;29;20450;-94
2021/12/16 10:20:37;;;;;;;21.00;11.70;;;7.50;99.90;;;;;;4824429;29;20046;-86
2021/12/16 10:23:07;;;;;;;24.35;12.02;;;7.50;99.90;;;;;;4811752;29;20057;-86
2021/12/16 10:25:38;;;;;;;18.40;11.85;;;7.90;99.90;;;;;;4832909;29;20050;-87
2021/12/16 10:28:23;;;;;;;20.65;12.32;;;7.50;99.90;;;;;;4806789;29;20053;-87
2021/12/16 10:31:02;;;;;;;21.55;10.60;;;7.50;99.90;;;;;;4812928;29;20054;-86
2021/12/16 10:33:40;;;;;;;23.08;11.02;;;7.50;99.90;;;;;;4811587;29;20144;-86
2021/12/16 10:36:27;;;;;;;27.55;12.98;;;7.50;99.90;;;;;;4826567;29;20050;-87
2021/12/16 10:39:02;;;;;;;24.08;12.13;;;7.50;99.90;;;;;;4826631;29;20517;-87
2021/12/16 10:41:35;;;;;;;17.50;11.65;;;7.50;99.90;;;;;;4825714;29;20056;-86
2021/12/16 10:44:14;;;;;;;22.50;13.30;;;7.50;99.90;;;;;;4811348;29;20525;-86
2021/12/16 10:47:05;;;;;;;25.55;14.40;;;7.50;99.90;;;;;;4812003;29;20054;-86
2021/12/16 10:49:38;;;;;;;21.08;12.98;;;7.50;99.90;;;;;;4811596;29;20510;-86
2021/12/16 10:52:13;;;;;;;21.52;12.07;;;7.80;99.90;;;;;;4826618;29;20054;-87
2021/12/16 10:54:44;;;;;;;23.05;12.68;;;7.50;99.90;;;;;;4826666;29;20054;-86
2021/12/16 10:57:16;;;;;;;21.75;12.10;;;7.50;99.90;;;;;;4811030;29;20046;-86
2021/12/16 10:59:51;;;;;;;23.48;14.00;;;8.30;99.90;;;;;;4826559;29;20152;-86
2021/12/16 11:02:29;;;;;;;23.98;13.70;;;7.60;99.90;;;;;;4811143;29;20057;-86
2021/12/16 11:05:05;;;;;;;20.58;12.52;;;7.60;99.90;;;;;;4842904;29;20054;-86
2021/12/16 11:07:34;;;;;;;25.60;12.32;;;7.60;99.90;;;;;;4811591;29;20054;-86
2021/12/16 11:10:28;;;;;;;24.92;14.27;;;7.60;99.90;;;;;;4826007;29;20042;-87
2021/12/16 11:13:09;;;;;;;20.67;12.98;;;7.70;99.90;;;;;;4826529;29;20058;-87
2021/12/16 11:15:35;;;;;;;24.40;12.88;;;7.70;99.90;;;;;;4811281;29;20079;-86
2021/12/16 11:18:17;;;;;;;25.53;12.97;;;7.70;99.90;;;;;;4810957;29;20054;-86
2021/12/16 11:21:00;;;;;;;20.25;12.07;;;7.70;99.90;;;;;;4826676;29;20466;-85
2021/12/16 11:23:34;;;;;;;22.25;12.70;;;7.80;99.90;;;;;;4811121;29;20054;-86
2021/12/16 11:26:10;;;;;;;22.52;12.50;;;7.80;99.90;;;;;;4826122;29;20046;-87
2021/12/16 11:28:46;;;;;;;17.10;10.87;;;7.80;99.90;;;;;;4811298;29;20050;-86
2021/12/16 11:31:28;;;;;;;17.80;10.75;;;7.80;99.90;;;;;;4810778;29;20485;-87
2021/12/16 11:34:08;;;;;;;23.67;12.18;;;7.80;99.90;;;;;;4811049;29;20050;-86
2021/12/16 11:36:40;;;;;;;28.60;16.60;;;7.80;99.90;;;;;;4811195;29;20141;-87
2021/12/16 11:39:15;;;;;;;18.25;11.95;;;8.40;99.90;;;;;;4810461;29;20050;-87
2021/12/16 11:41:51;;;;;;;20.23;11.80;;;7.90;99.90;;;;;;4811976;29;20160;-87
2021/12/16 11:44:23;;;;;;;24.77;14.52;;;7.90;99.90;;;;;;4828961;29;20577;-85
2021/12/16 11:47:03;;;;;;;23.05;12.50;;;7.90;99.90;;;;;;4844095;29;20049;-86
2021/12/16 11:49:34;;;;;;;23.77;10.60;;;7.90;99.90;;;;;;4825901;29;20058;-83
2021/12/16 11:52:05;;;;;;;25.58;11.60;;;7.90;99.90;;;;;;4811346;29;20462;-83
2021/12/16 11:54:40;;;;;;;17.30;10.43;;;7.90;99.90;;;;;;4827345;29;20085;-86
2021/12/16 11:57:09;;;;;;;17.80;10.80;;;7.90;99.90;;;;;;4828126;29;20089;-84
2021/12/16 11:59:48;;;;;;;18.02;10.07;;;7.90;99.90;;;;;;4810675;29;20136;-87
2021/12/16 12:02:41;;;;;;;18.75;10.02;;;7.90;99.90;;;;;;4825535;29;20128;-85
2021/12/16 12:05:31;;;;;;;22.80;9.55;;;7.90;99.90;;;;;;4810350;29;20338;-85
2021/12/16 12:08:26;;;;;;;17.42;10.77;;;7.90;99.90;;;;;;4825565;29;20465;-85
2021/12/16 12:11:06;;;;;;;16.83;10.43;;;7.90;99.90;;;;;;4838544;29;20509;-84
2021/12/16 12:13:40;;;;;;;19.17;11.25;;;7.90;99.90;;;;;;4814209;29;20094;-86
2021/12/16 12:16:14;;;;;;;22.08;11.70;;;7.90;99.90;;;;;;4843613;29;20396;-87
2021/12/16 12:18:50;;;;;;;16.20;10.82;;;8.30;99.90;;;;;;4843105;29;20056;-84
2021/12/16 12:21:16;;;;;;;15.55;10.20;;;7.90;99.90;;;;;;4843663;29;20105;-84
2021/12/16 12:23:42;;;;;;;24.13;12.40;;;7.90;99.90;;;;;;4838869;29;20053;-86
2021/12/16 12:26:14;;;;;;;20.58;10.35;;;7.90;99.90;;;;;;4828351;29;20053;-86
2021/12/16 12:28:40;;;;;;;21.17;11.90;;;8.00;99.90;;;;;;4799778;29;20046;-86
2021/12/16 12:31:06;;;;;;;18.65;10.77;;;8.00;99.90;;;;;;4809948;29;20102;-87
2021/12/16 12:33:31;;;;;;;22.07;11.60;;;8.00;99.90;;;;;;4810883;29;20435;-86
2021/12/16 12:35:57;;;;;;;17.83;11.10;;;7.90;99.90;;;;;;4812766;29;20107;-86
2021/12/16 12:38:23;;;;;;;19.67;11.90;;;8.00;99.90;;;;;;4825248;29;20072;-85
2021/12/16 12:40:49;;;;;;;24.15;12.52;;;8.00;99.90;;;;;;4840428;29;20046;-85
2021/12/16 12:43:16;;;;;;;19.13;11.60;;;8.00;99.90;;;;;;4809878;29;20050;-86
2021/12/16 12:45:42;;;;;;;19.60;11.45;;;8.00;99.90;;;;;;4810471;29;20050;-85
2021/12/16 12:48:15;;;;;;;24.13;11.23;;;8.00;99.90;;;;;;4824741;29;20059;-86
2021/12/16 12:50:43;;;;;;;18.42;9.98;;;8.00;99.90;;;;;;4806866;29;20054;-87
2021/12/16 12:53:17;;;;;;;17.88;11.30;;;8.00;99.90;;;;;;4806977;29;20053;-88
2021/12/16 12:55:44;;;;;;;21.52;12.00;;;8.00;99.90;;;;;;4821923;29;20501;-86
2021/12/16 12:58:18;;;;;;;19.83;11.18;;;8.30;99.90;;;;;;4821774;29;20051;-89
2021/12/16 13:00:46;;;;;;;20.55;12.35;;;8.10;99.90;;;;;;4806699;29;20502;-85
2021/12/16 13:03:21;;;;;;;14.82;9.82;;;8.10;99.90;;;;;;4821943;29;20099;-87
2021/12/16 13:06:17;;;;;;;15.65;9.63;;;8.10;99.90;;;;;;4810447;29;20570;-84
2021/12/16 13:08:46;;;;;;;16.85;9.57;;;8.10;99.90;;;;;;4815159;29;20058;-87
2021/12/16 13:11:25;;;;;;;20.80;11.20;;;8.10;99.90;;;;;;4823764;29;20042;-86
2021/12/16 13:14:21;;;;;;;24.60;11.07;;;8.20;99.90;;;;;;4823953;29;20046;-86
2021/12/16 13:26:00;;;;;;;15.40;9.53;;;8.20;99.90;;;;;;4823213;29;20474;-86
2021/12/16 13:31:05;;;;;;;19.40;9.43;;;8.20;99.90;;;;;;4832317;29;20057;-85
2021/12/16 13:33:42;;;;;;;20.92;9.48;;;8.20;99.90;;;;;;4810846;29;20307;-86
2021/12/16 13:36:26;;;;;;;20.70;10.57;;;8.20;99.90;;;;;;4803384;29;20087;-85
2021/12/16 13:38:53;;;;;;;19.65;9.93;;;8.20;99.90;;;;;;4824213;29;20050;-86
2021/12/16 13:41:28;;;;;;;21.92;9.50;;;8.20;99.90;;;;;;4822937;29;20057;-87
2021/12/16 13:44:13;;;;;;;20.63;11.35;;;8.20;99.90;;;;;;4808573;29;20128;-88
2021/12/16 13:47:03;;;;;;;20.50;11.05;;;8.20;99.90;;;;;;4823673;29;20106;-87
2021/12/16 13:59:17;;;;;;;23.00;9.93;;;8.20;99.90;;;;;;4811205;29;20082;-88
2021/12/16 14:04:04;;;;;;;19.55;10.15;;;8.10;99.90;;;;;;4832077;29;20091;-87
2021/12/16 14:06:53;;;;;;;16.75;10.57;;;8.10;99.90;;;;;;4817816;29;20080;-87
2021/12/16 14:09:26;;;;;;;19.00;10.50;;;8.10;99.90;;;;;;4822911;29;20126;-88
2021/12/16 14:17:16;;;;;;;27.25;11.43;;;8.20;99.90;;;;;;4821991;29;20134;-86
2021/12/16 14:25:36;;;;;;;21.75;11.50;;;8.10;99.90;;;;;;4810103;29;20053;-86
2021/12/16 14:41:48;;;;;;;18.33;8.90;;;8.10;99.90;;;;;;4838337;29;20011;-88
2021/12/16 14:47:10;;;;;;;15.23;9.13;;;8.10;99.90;;;;;;4824042;29;20085;-88
2021/12/16 14:49:48;;;;;;;17.02;10.15;;;8.10;99.90;;;;;;4808099;29;20065;-86
2021/12/16 14:52:27;;;;;;;19.45;12.07;;;8.10;99.90;;;;;;4821917;29;20057;-86
2021/12/16 14:55:08;;;;;;;18.45;12.85;;;8.10;99.90;;;;;;4827280;29;20501;-86
2021/12/16 14:57:39;;;;;;;16.70;10.13;;;8.10;99.90;;;;;;4819814;29;20058;-87
2021/12/16 15:00:12;;;;;;;19.25;12.98;;;8.10;99.90;;;;;;4807635;29;20109;-87
2021/12/16 15:02:40;;;;;;;20.67;15.52;;;8.30;99.90;;;;;;4820773;29;20050;-86
2021/12/16 15:05:30;;;;;;;22.63;12.55;;;8.10;99.90;;;;;;4820845;29;20095;-85
2021/12/16 15:11:09;;;;;;;17.52;11.35;;;8.00;99.90;;;;;;4709778;30;20143;-85
2021/12/16 15:13:42;;;;;;;17.35;8.98;;;8.00;99.90;;;;;;4696601;30;20512;-85
2021/12/16 15:38:47;;;;;;;17.73;9.68;;;8.00;99.90;;;;;;4814198;29;20419;-86
2021/12/16 15:44:11;;;;;;;17.80;8.32;;;8.00;99.90;;;;;;4813871;29;19980;-86
2021/12/16 15:46:39;;;;;;;15.80;8.32;;;8.00;99.90;;;;;;4835840;29;20042;-86
2021/12/16 15:49:06;;;;;;;12.10;7.90;;;8.00;99.90;;;;;;4818237;29;20057;-85
2021/12/16 15:51:32;;;;;;;20.10;9.60;;;7.90;99.90;;;;;;4807309;29;20047;-86
2021/12/16 15:54:00;;;;;;;27.50;10.73;;;7.90;99.90;;;;;;4821084;29;20034;-87
2021/12/16 15:56:35;;;;;;;16.42;10.45;;;7.90;99.90;;;;;;4806390;29;20050;-87
2021/12/16 15:59:11;;;;;;;18.55;9.60;;;7.90;99.90;;;;;;4819851;29;20620;-87
2021/12/16 16:01:40;;;;;;;19.67;10.35;;;7.90;99.90;;;;;;4805785;29;20058;-87
2021/12/16 16:04:17;;;;;;;20.67;11.05;;;7.90;99.90;;;;;;4806032;29;20426;-88
2021/12/16 16:06:46;;;;;;;14.87;9.87;;;7.90;99.90;;;;;;4819996;29;20053;-86
2021/12/16 16:09:16;;;;;;;21.83;11.50;;;7.90;99.90;;;;;;4820800;29;20291;-87
2021/12/16 16:11:47;;;;;;;21.08;11.73;;;7.90;99.90;;;;;;4819896;29;20405;-88
2021/12/16 16:14:15;;;;;;;21.48;11.55;;;7.90;99.90;;;;;;4805544;29;20038;-87
2021/12/16 16:16:48;;;;;;;20.02;12.95;;;7.90;99.90;;;;;;4803561;29;20094;-87
2021/12/16 16:19:18;;;;;;;18.70;10.45;;;7.90;99.90;;;;;;4819602;29;20478;-87
2021/12/16 16:21:48;;;;;;;18.73;10.95;;;7.90;99.90;;;;;;4812965;29;20051;-86
2021/12/16 16:24:24;;;;;;;26.23;12.05;;;7.90;99.90;;;;;;4820839;29;20127;-87
2021/12/16 16:26:54;;;;;;;23.15;12.60;;;8.00;99.90;;;;;;4820947;29;20441;-87
2021/12/16 16:29:23;;;;;;;21.92;10.70;;;8.00;99.90;;;;;;4805625;29;20387;-87
2021/12/16 16:31:55;;;;;;;17.65;10.82;;;7.90;99.90;;;;;;4820008;29;20390;-88
2021/12/16 16:34:29;;;;;;;19.60;9.68;;;8.40;99.90;;;;;;4805924;29;20062;-88
2021/12/16 16:36:58;;;;;;;32.63;13.57;;;8.00;99.90;;;;;;4819752;29;20050;-82
2021/12/16 16:39:27;;;;;;;20.15;11.30;;;8.00;99.90;;;;;;4824146;29;20050;-85
2021/12/16 16:42:01;;;;;;;22.20;11.18;;;8.00;99.90;;;;;;4808998;29;20054;-83
2021/12/16 16:44:29;;;;;;;17.30;11.07;;;8.00;99.90;;;;;;4825380;29;20050;-87
2021/12/16 16:47:02;;;;;;;21.42;12.88;;;8.00;99.90;;;;;;4811970;29;20051;-86
2021/12/16 16:49:58;;;;;;;;;;;;;;;;;;;;;